LiveATC.Net - Listen to live air traffic control over the Internet!


ICAO: KGDM  IATA: GDM   Airport: Gardner Municipal Airport
City: Gardner   State/Province: Massachusetts
Country: United States   Continent: North America
KORE METAR Weather: KORE 132352Z AUTO 00000KT 10SM BKN085 21/11 A3008 RMK AO2 SLP187 T02060106 10256 20206 53005
KGDM Flight Activity (FlightAware)
KGDM Airport Info   (iFlightPlanner)
KGDM VFR Sectional Chart   (iFlightPlanner) 
KGDM IFR Low Altitude Chart   (iFlightPlanner) 
KGDM IFR High Altitude Chart   (iFlightPlanner) 

KGDM/KORE CTAF
Feed Status: DOWN
Last heard on: 2022-07-12 22:14:22 (32 days 2 hours 5 minutes ago)
Archive Access: KGDM/KORE CTAF
FacilityFrequency
Gardner CTAF122.800

NOTICE

Unauthorized use prohibited. See LiveATC.net Terms of Service


Airport/ARTCC Code
Frequency Search
(e.g., 124.400, 128.75)
Site-wide search
 


Browse Feeds
Top 50 Feeds
HF Oceanic Feeds
Coverage Map
Bad Weather Areas

LiveATC FAQ
Offer LiveATC feed
Contact LiveATC.net
Press Inquiries

LiveATC on iPhone
LiveATC on Android

LiveATC Mobile
(Mobile browser)

ATC Audio Archives
Interesting Recordings

LiveATC Forums


Home Page
About LiveATC.net


Terms of Use
Privacy Policy

AIRMETs/SIGMETs

FAA Airport Status
NAS Status
Arrival Demand


Server Software By:
Icecast.org
Liquidsoap